Detall de PIREP

Printer-friendly versionPDF version

[2012/01/27 21:39:00]
Flight IATA:CT1004
Pilot Number:037
Company ICAO:CAT
Aircraft Type:B752/E
PAX:152
Departing Airport: LERS
Destination Airport: LEMH
Alternate Airport:LEPA
Online: VATSIM
Route:BCN H70 SARGO
Flight Level:F220
No Slew and time accel
No pause
Crash detect
Detect pilot in Cockpit between each 30 and 45 minutes
21:39 Zero fuel Weight: 171190 Lbs, Fuel Weight: 15013 Lbs
21:39 VATSIM:LERS 272130Z VRB02KT 9000 FEW020 SCT050 08/07 Q1023
21:39 VATSIM:LEMH 272100Z 02006KT 9999 FEW019 SCT044 10/09 Q1021
21:49 Parking Brakes off
21:57 Take-off
21:57 Take off Weight: 185198 Lbs
21:57 Wind: 330º @ 003 Knots Heading: 068º
21:57 POS N41º 09´ 01´´ E001º 10´ 40´´
21:57 Flaps:3 at 190 Knots
21:57 Gear Up: 200 Knots
21:57 Flaps:2 at 209 Knots
21:57 Flaps:1 at 219 Knots
21:57 Flaps:0 at 212 Knots
22:10 TOC
22:10 Fuel Weight: 11080 Lb
22:12 Wind:318º@011 Knots Heading: 117º Ground Speed: 453 Knots Altitude 22273 ft
22:19 TOD
22:19 Fuel Weight: 9433 Lb
22:27 Wind:016º@014 Knots Heading: 117º Ground Speed: 280 Knots Altitude 11663 ft
22:36 Flaps:1 at 203 Knots
22:41 Flaps:2 at 191 Knots
22:42 Wind:020º@010 Knots Heading: 122º Ground Speed: 190 Knots Altitude 3225 ft
22:44 Flaps:3 at 171 Knots
22:44 Gear Down: 170 Knots
22:46 Flaps:4 at 150 Knots
22:47 Flaps:5 at 140 Knots
22:48 Flaps:6 at 140 Knots
22:49 TouchDown:Rate -310 ft/min Speed: 134 Knots
22:49 VATSIM:LEMH 272100Z 02006KT 9999 FEW019 SCT044 10/09 Q1021
22:49 Land
22:49 Wind:021º@006 Knots
22:49 Heading: 008º
22:49 Flight Duration: 00:52
22:49 Landing Weight: 177904 Lbs
22:49 POS N39º 52´ 02´´ E004º 13´ 10´´
22:52 Parking brakes on
22:52 Block to Block Duration: 01:03
22:52 Final Fuel: 6302 Lbls
22:52 Spent Fuel: 8710 Lbls
22:52 Flight Length: 249 NM
22:52 TOD Land Length: 119 NM

Exportar CSV

Powered by Drupal - Modified by Danger4k